createdAt,value
2019-02-24T00:00:42.651Z,42.27
2019-02-24T00:03:11.501Z,38.63
2019-02-24T00:05:40.056Z,40.50
2019-02-24T00:08:08.540Z,50.33
2019-02-24T00:10:37.054Z,42.97
2019-02-24T00:13:05.659Z,44.47
2019-02-24T00:15:34.118Z,48.17
2019-02-24T00:18:02.745Z,44.07
2019-02-24T00:20:32.848Z,47.80
2019-02-24T00:23:01.310Z,50.30
2019-02-24T00:25:29.785Z,40.07
2019-02-24T00:28:07.264Z,43.37
2019-02-24T00:30:34.562Z,42.80
2019-02-24T00:33:03.029Z,39.87
2019-02-24T00:35:31.563Z,36.57
2019-02-24T00:38:00.342Z,36.27
2019-02-24T00:40:28.799Z,32.53
2019-02-24T00:42:57.241Z,33.97
2019-02-24T00:45:25.708Z,33.27
2019-02-24T00:47:54.225Z,42.00
2019-02-24T00:50:22.718Z,32.67
2019-02-24T00:52:51.173Z,29.20
2019-02-24T00:55:19.636Z,25.20
2019-02-24T00:57:48.117Z,26.23
2019-02-24T01:00:16.575Z,33.10
2019-02-24T01:02:45.052Z,24.07
2019-02-24T01:05:13.507Z,27.10
2019-02-24T01:07:41.961Z,28.43
2019-02-24T01:10:10.666Z,31.70
2019-02-24T01:12:39.189Z,26.53
2019-02-24T01:15:10.250Z,33.10
2019-02-24T01:17:38.734Z,31.83
2019-02-24T01:20:09.500Z,27.80
2019-02-24T01:22:38.628Z,30.13
2019-02-24T01:25:08.545Z,29.53
2019-02-24T01:27:37.075Z,27.53
2019-02-24T01:30:08.143Z,28.37
2019-02-24T01:32:36.623Z,27.83
2019-02-24T01:35:06.752Z,28.37
2019-02-24T01:37:35.273Z,27.93
2019-02-24T01:40:04.779Z,40.50
2019-02-24T01:42:33.238Z,33.67
2019-02-24T01:45:01.744Z,30.80
2019-02-24T01:47:30.263Z,33.23
2019-02-24T01:49:58.715Z,31.47
2019-02-24T01:52:27.210Z,30.47
2019-02-24T01:54:55.663Z,30.40
2019-02-24T01:57:24.117Z,27.50
2019-02-24T01:59:52.770Z,35.53
2019-02-24T02:02:21.298Z,31.37
2019-02-24T02:04:50.101Z,32.57
2019-02-24T02:07:19.297Z,34.53
2019-02-24T02:09:47.763Z,38.67
2019-02-24T02:12:16.279Z,35.73
2019-02-24T02:14:44.779Z,35.93
2019-02-24T02:17:13.310Z,34.87
2019-02-24T02:19:41.773Z,39.73
2019-02-24T02:22:10.702Z,39.63
2019-02-24T02:24:39.151Z,37.23
2019-02-24T02:27:07.619Z,35.33
2019-02-24T02:29:36.422Z,38.27
2019-02-24T02:32:04.965Z,28.17
2019-02-24T02:34:33.526Z,31.20
2019-02-24T02:37:02.147Z,34.50
2019-02-24T02:39:30.634Z,27.83
2019-02-24T02:41:59.195Z,29.53
2019-02-24T02:44:27.727Z,29.33
2019-02-24T02:46:56.208Z,27.13
2019-02-24T02:49:24.932Z,27.97
2019-02-24T02:51:53.407Z,31.37
2019-02-24T02:54:21.934Z,30.87
2019-02-24T02:56:50.421Z,27.93
2019-02-24T02:59:26.195Z,32.03
2019-02-24T03:01:54.688Z,29.37
2019-02-24T03:04:23.162Z,28.87
2019-02-24T03:06:55.820Z,26.27
2019-02-24T03:09:24.285Z,29.43
2019-02-24T03:11:52.721Z,22.93
2019-02-24T03:14:21.262Z,26.13
2019-02-24T03:16:49.723Z,21.97
2019-02-24T03:19:18.274Z,27.83
2019-02-24T03:21:46.727Z,25.83
2019-02-24T03:24:15.198Z,23.90
2019-02-24T03:26:43.722Z,27.10
2019-02-24T03:29:12.188Z,30.70
2019-02-24T03:31:40.685Z,31.40
2019-02-24T03:34:09.127Z,29.40
2019-02-24T03:36:37.583Z,29.20
2019-02-24T03:39:06.983Z,30.03
2019-02-24T03:41:35.536Z,29.87
2019-02-24T03:44:04.058Z,31.40
2019-02-24T03:46:32.525Z,28.97
2019-02-24T03:49:01.172Z,29.80
2019-02-24T03:51:29.641Z,28.73
2019-02-24T03:53:58.460Z,29.47
2019-02-24T03:56:26.916Z,28.93
2019-02-24T03:58:55.455Z,31.33
2019-02-24T04:01:24.232Z,28.60
2019-02-24T04:03:52.744Z,35.00
2019-02-24T04:06:21.206Z,32.00
2019-02-24T04:08:49.657Z,32.43
2019-02-24T04:11:18.128Z,34.20
2019-02-24T04:13:46.686Z,30.43
2019-02-24T04:16:15.186Z,26.70
2019-02-24T04:18:43.633Z,33.87
2019-02-24T04:21:12.095Z,28.60
2019-02-24T04:23:40.547Z,32.10
2019-02-24T04:26:08.998Z,30.43
2019-02-24T04:28:37.450Z,43.43
2019-02-24T04:31:05.934Z,32.70
2019-02-24T04:33:34.382Z,37.23
2019-02-24T04:36:02.843Z,37.67
2019-02-24T04:38:31.328Z,43.70
2019-02-24T04:40:59.788Z,39.70
2019-02-24T04:43:28.246Z,32.83
2019-02-24T04:45:56.813Z,30.57
2019-02-24T04:48:25.347Z,30.17
2019-02-24T04:50:53.810Z,31.40
2019-02-24T04:53:22.346Z,28.33
2019-02-24T04:55:50.821Z,29.23
2019-02-24T04:58:19.273Z,31.03
2019-02-24T05:00:47.730Z,31.73
2019-02-24T05:03:16.232Z,31.10
2019-02-24T05:05:44.690Z,30.40
2019-02-24T05:08:13.153Z,30.00
2019-02-24T05:10:41.674Z,29.20
2019-02-24T05:13:10.147Z,27.50
2019-02-24T05:15:38.686Z,28.43
2019-02-24T05:18:07.218Z,31.70
2019-02-24T05:20:35.677Z,29.70
2019-02-24T05:23:04.133Z,31.23
2019-02-24T05:25:32.609Z,27.53
2019-02-24T05:28:01.127Z,29.37
2019-02-24T05:30:29.651Z,26.57
2019-02-24T05:32:58.243Z,29.50
2019-02-24T05:35:26.772Z,29.57
2019-02-24T05:37:55.241Z,28.00
2019-02-24T05:40:23.686Z,29.43
2019-02-24T05:42:52.157Z,28.33
2019-02-24T05:45:20.786Z,29.33
2019-02-24T05:47:49.242Z,26.60
2019-02-24T05:50:17.782Z,28.40
2019-02-24T05:52:46.289Z,26.70
2019-02-24T05:55:14.747Z,28.30
2019-02-24T05:57:43.236Z,30.30
2019-02-24T06:00:11.901Z,31.53
2019-02-24T06:02:40.367Z,30.50
2019-02-24T06:05:09.159Z,25.97
2019-02-24T06:07:37.700Z,32.00
2019-02-24T06:10:06.967Z,27.73
2019-02-24T06:12:35.454Z,27.30
2019-02-24T06:15:05.708Z,33.60
2019-02-24T06:17:34.252Z,31.20
2019-02-24T06:20:02.798Z,31.40
2019-02-24T06:22:31.368Z,28.37
2019-02-24T06:24:59.829Z,30.87
2019-02-24T06:27:28.292Z,30.43
2019-02-24T06:30:04.566Z,32.63
2019-02-24T06:32:26.934Z,28.97
2019-02-24T06:34:55.501Z,33.73
2019-02-24T06:37:23.963Z,33.20
2019-02-24T06:39:52.428Z,26.63
2019-02-24T06:42:20.889Z,33.20
2019-02-24T06:44:49.403Z,36.67
2019-02-24T06:47:17.965Z,36.13
2019-02-24T06:49:46.735Z,32.43
2019-02-24T06:52:15.176Z,31.63
2019-02-24T06:54:43.645Z,32.50
2019-02-24T06:57:12.102Z,31.77
2019-02-24T06:59:40.601Z,30.10
2019-02-24T07:02:09.052Z,26.73
2019-02-24T07:04:37.501Z,31.10
2019-02-24T07:07:06.045Z,29.63
2019-02-24T07:09:34.607Z,32.30
2019-02-24T07:12:03.081Z,29.90
2019-02-24T07:14:31.634Z,33.23
2019-02-24T07:17:00.088Z,28.37
2019-02-24T07:19:28.542Z,29.23
2019-02-24T07:21:57.013Z,26.47
2019-02-24T07:24:25.467Z,33.20
2019-02-24T07:26:54.116Z,29.27
2019-02-24T07:29:22.575Z,24.90
2019-02-24T07:31:51.045Z,27.77
2019-02-24T07:34:19.583Z,27.43
2019-02-24T07:36:48.107Z,22.77
2019-02-24T07:39:16.593Z,29.93
2019-02-24T07:41:45.057Z,26.60
2019-02-24T07:44:13.562Z,27.77
2019-02-24T07:46:42.047Z,26.50
2019-02-24T07:49:10.504Z,23.87
2019-02-24T07:51:38.959Z,28.50
2019-02-24T07:54:07.427Z,30.87
2019-02-24T07:56:37.353Z,23.90
2019-02-24T07:59:06.035Z,22.13
2019-02-24T08:01:34.561Z,20.47
2019-02-24T08:04:03.134Z,25.00
2019-02-24T08:06:31.654Z,27.47
2019-02-24T08:09:00.189Z,22.73
2019-02-24T08:11:28.733Z,22.13
2019-02-24T08:13:57.187Z,24.37
2019-02-24T08:16:25.635Z,22.53
2019-02-24T08:18:54.084Z,21.20
2019-02-24T08:21:22.549Z,23.27
2019-02-24T08:23:51.006Z,21.10
2019-02-24T08:26:19.567Z,26.13
2019-02-24T08:28:48.112Z,19.23
2019-02-24T08:31:16.642Z,19.80
2019-02-24T08:33:45.122Z,23.47
2019-02-24T08:36:15.365Z,19.60
2019-02-24T08:38:43.900Z,19.00
2019-02-24T08:41:12.367Z,17.57
2019-02-24T08:43:40.915Z,21.13
2019-02-24T08:46:09.445Z,18.83
2019-02-24T08:48:37.959Z,17.33
2019-02-24T08:51:06.516Z,20.10
2019-02-24T08:53:34.964Z,21.67
2019-02-24T08:56:03.407Z,17.73
2019-02-24T08:58:32.119Z,19.47
2019-02-24T09:01:00.580Z,17.83
2019-02-24T09:03:29.127Z,18.73
2019-02-24T09:05:57.646Z,16.53
2019-02-24T09:08:26.094Z,16.40
2019-02-24T09:10:54.545Z,19.57
2019-02-24T09:13:23.031Z,22.07
2019-02-24T09:15:53.279Z,16.03
2019-02-24T09:18:21.671Z,19.33
2019-02-24T09:20:50.146Z,16.30
2019-02-24T09:23:18.611Z,18.67
2019-02-24T09:25:47.216Z,17.83
2019-02-24T09:28:15.671Z,16.97
2019-02-24T09:30:44.122Z,18.27
2019-02-24T09:33:12.661Z,16.30
2019-02-24T09:35:41.118Z,18.70
2019-02-24T09:38:09.570Z,20.17
2019-02-24T09:40:38.035Z,17.93
2019-02-24T09:43:06.488Z,20.70
2019-02-24T09:45:34.959Z,20.40
2019-02-24T09:48:03.478Z,17.63
2019-02-24T09:50:31.945Z,22.43
2019-02-24T09:53:00.515Z,24.67
2019-02-24T09:55:29.004Z,20.40
2019-02-24T09:57:57.458Z,22.30
2019-02-24T10:00:26.019Z,20.97
2019-02-24T10:02:54.442Z,26.23
2019-02-24T10:05:22.941Z,24.00
2019-02-24T10:07:51.418Z,24.67
2019-02-24T10:10:19.955Z,26.50
2019-02-24T10:12:48.423Z,22.53
2019-02-24T10:15:17.017Z,23.33
2019-02-24T10:17:45.545Z,24.77
2019-02-24T10:20:14.147Z,21.50
2019-02-24T10:22:42.604Z,21.70
2019-02-24T10:25:11.135Z,20.70
2019-02-24T10:27:39.588Z,21.47
2019-02-24T10:30:13.403Z,22.93
2019-02-24T10:32:41.871Z,22.50
2019-02-24T10:35:10.409Z,26.60
2019-02-24T10:37:38.949Z,24.60
2019-02-24T10:40:15.604Z,22.23
2019-02-24T10:42:44.081Z,21.10
2019-02-24T10:45:15.047Z,26.77
2019-02-24T10:47:43.506Z,23.87
2019-02-24T10:50:14.670Z,23.43
2019-02-24T10:52:43.144Z,37.73
2019-02-24T10:55:12.143Z,98.53
2019-02-24T10:57:40.611Z,25.00
2019-02-24T11:00:23.031Z,33.97
2019-02-24T11:02:51.642Z,23.90
2019-02-24T11:05:20.092Z,20.47
2019-02-24T11:07:48.582Z,22.03
2019-02-24T11:10:20.058Z,24.83
2019-02-24T11:12:48.519Z,23.60
2019-02-24T11:15:17.008Z,24.87
2019-02-24T11:17:45.533Z,46.93
2019-02-24T11:20:18.530Z,24.93
2019-02-24T11:22:47.037Z,27.73
2019-02-24T11:25:15.611Z,24.13
2019-02-24T11:27:44.096Z,23.47
2019-02-24T11:30:14.090Z,24.27
2019-02-24T11:32:42.909Z,21.13
2019-02-24T11:35:12.511Z,22.63
2019-02-24T11:37:41.142Z,26.13
2019-02-24T11:40:12.769Z,28.63
2019-02-24T11:42:41.253Z,24.50
2019-02-24T11:45:10.348Z,26.17
2019-02-24T11:47:38.865Z,22.33
2019-02-24T11:50:10.246Z,22.87
2019-02-24T11:52:38.993Z,28.00
2019-02-24T11:55:09.454Z,21.77
2019-02-24T11:57:37.947Z,28.73
2019-02-24T12:00:12.063Z,24.77
2019-02-24T12:02:41.815Z,26.60
2019-02-24T12:05:10.966Z,27.90
2019-02-24T12:07:39.546Z,27.40
2019-02-24T12:10:10.186Z,25.40
2019-02-24T12:12:41.736Z,26.53
2019-02-24T12:15:14.589Z,25.93
2019-02-24T12:17:43.212Z,27.43
2019-02-24T12:20:12.822Z,24.87
2019-02-24T12:22:41.278Z,28.50
2019-02-24T12:25:11.137Z,30.77
2019-02-24T12:27:39.602Z,29.17
2019-02-24T12:30:12.515Z,30.00
2019-02-24T12:32:41.039Z,28.50
2019-02-24T12:35:09.673Z,28.57
2019-02-24T12:37:38.148Z,33.67
2019-02-24T12:40:09.779Z,27.57
2019-02-24T12:42:38.314Z,33.07
2019-02-24T12:45:08.680Z,27.40
2019-02-24T12:47:37.333Z,26.47
2019-02-24T12:50:16.746Z,35.80
2019-02-24T12:52:46.526Z,28.93
2019-02-24T12:55:14.979Z,26.30
2019-02-24T12:57:44.064Z,33.43
2019-02-24T13:00:17.411Z,26.00
2019-02-24T13:02:45.873Z,31.10
2019-02-24T13:05:14.800Z,27.53
2019-02-24T13:07:43.527Z,36.73
2019-02-24T13:10:16.382Z,49.83
2019-02-24T13:12:44.911Z,31.47
2019-02-24T13:15:13.513Z,35.37
2019-02-24T13:17:42.488Z,31.37
2019-02-24T13:20:11.860Z,30.97
2019-02-24T13:22:40.564Z,31.13
2019-02-24T13:25:11.227Z,28.37
2019-02-24T13:27:40.267Z,37.50
2019-02-24T13:30:11.467Z,37.50
2019-02-24T13:32:39.921Z,34.43
2019-02-24T13:35:09.432Z,33.27
2019-02-24T13:37:37.960Z,32.13
2019-02-24T13:40:09.934Z,34.47
2019-02-24T13:42:38.447Z,34.37
2019-02-24T13:45:12.882Z,38.80
2019-02-24T13:47:41.418Z,31.57
2019-02-24T13:50:10.414Z,32.37
2019-02-24T13:52:39.140Z,28.87
2019-02-24T13:55:12.761Z,32.50
2019-02-24T13:57:41.218Z,34.90
2019-02-24T14:00:20.565Z,28.63
2019-02-24T14:02:49.063Z,30.57
2019-02-24T14:05:17.762Z,31.07
2019-02-24T14:07:46.228Z,30.53
2019-02-24T14:10:17.750Z,34.37
2019-02-24T14:12:46.207Z,34.23
2019-02-24T14:15:16.016Z,34.10
2019-02-24T14:17:44.744Z,32.27
2019-02-24T14:20:14.648Z,36.23
2019-02-24T14:22:43.291Z,33.03
2019-02-24T14:25:13.199Z,36.33
2019-02-24T14:27:41.660Z,38.63
2019-02-24T14:30:16.253Z,32.33
2019-02-24T14:32:44.710Z,33.67
2019-02-24T14:35:21.203Z,43.77
2019-02-24T14:37:49.743Z,46.37
2019-02-24T14:40:18.221Z,39.13
2019-02-24T14:42:46.679Z,40.37
2019-02-24T14:45:23.768Z,40.40
2019-02-24T14:47:52.220Z,45.07
2019-02-24T14:50:20.753Z,50.77
2019-02-24T14:52:49.419Z,61.20
2019-02-24T14:55:17.878Z,68.30
2019-02-24T14:57:46.452Z,53.33
2019-02-24T15:00:20.007Z,62.23
2019-02-24T15:02:48.494Z,56.17
2019-02-24T15:05:17.080Z,47.50
2019-02-24T15:07:45.874Z,40.70
2019-02-24T15:10:19.439Z,38.73
2019-02-24T15:12:47.926Z,35.37
2019-02-24T15:15:19.590Z,35.13
2019-02-24T15:17:48.119Z,36.03
2019-02-24T15:20:19.111Z,35.67
2019-02-24T15:22:47.575Z,37.33
2019-02-24T15:25:18.051Z,35.23
2019-02-24T15:27:46.953Z,34.70
2019-02-24T15:30:38.787Z,31.70
2019-02-24T15:33:07.318Z,38.70
2019-02-24T15:35:35.765Z,41.80
2019-02-24T15:38:04.358Z,38.07
2019-02-24T15:40:32.900Z,38.10
2019-02-24T15:43:01.515Z,42.57
2019-02-24T15:45:30.045Z,37.73
2019-02-24T15:47:58.488Z,42.63
2019-02-24T15:50:27.032Z,41.77
2019-02-24T15:52:55.492Z,38.40
2019-02-24T15:55:24.023Z,35.03
2019-02-24T15:57:52.508Z,34.60
2019-02-24T16:00:25.100Z,38.47
2019-02-24T16:03:00.946Z,42.40
2019-02-24T16:05:23.883Z,47.27
2019-02-24T16:07:52.522Z,101.03
2019-02-24T16:10:22.105Z,48.33
2019-02-24T16:12:50.607Z,53.90
2019-02-24T16:15:24.414Z,54.80
2019-02-24T16:17:52.867Z,50.87
2019-02-24T16:20:27.109Z,45.53
2019-02-24T16:22:55.546Z,51.10
2019-02-24T16:25:24.076Z,47.07
2019-02-24T16:27:53.339Z,43.03
2019-02-24T16:30:21.839Z,41.20
2019-02-24T16:32:50.283Z,48.87
2019-02-24T16:35:19.218Z,52.20
2019-02-24T16:37:47.745Z,62.30
2019-02-24T16:40:31.398Z,94.60
2019-02-24T16:43:00.763Z,78.90
2019-02-24T16:45:29.283Z,67.17
2019-02-24T16:47:57.838Z,60.13
2019-02-24T16:50:26.540Z,56.33
2019-02-24T16:52:55.002Z,53.77
2019-02-24T16:55:23.606Z,52.77
2019-02-24T16:57:52.674Z,53.63
2019-02-24T17:00:25.334Z,54.17
2019-02-24T17:02:53.949Z,55.43
2019-02-24T17:05:22.617Z,45.70
2019-02-24T17:07:51.069Z,50.07
2019-02-24T17:10:24.877Z,45.67
2019-02-24T17:12:53.422Z,50.83
2019-02-24T17:15:21.949Z,49.00
2019-02-24T17:17:50.530Z,51.97
2019-02-24T17:20:21.778Z,48.70
2019-02-24T17:22:50.242Z,60.00
2019-02-24T17:25:18.701Z,55.20
2019-02-24T17:27:47.227Z,61.43
2019-02-24T17:30:17.229Z,64.33
2019-02-24T17:32:45.758Z,72.60
2019-02-24T17:35:14.864Z,69.70
2019-02-24T17:37:43.554Z,84.47
2019-02-24T17:40:20.185Z,72.20
2019-02-24T17:42:48.717Z,64.57
2019-02-24T17:45:17.619Z,72.63
2019-02-24T17:47:46.493Z,71.13
2019-02-24T17:50:16.559Z,80.70
2019-02-24T17:52:45.019Z,108.60
2019-02-24T17:55:14.814Z,163.43
2019-02-24T17:57:43.332Z,114.53
2019-02-24T18:00:22.600Z,152.17
2019-02-24T18:02:51.138Z,113.40
2019-02-24T18:05:19.667Z,82.33
2019-02-24T18:07:48.177Z,89.47
2019-02-24T18:10:16.707Z,92.47
2019-02-24T18:12:45.264Z,80.77
2019-02-24T18:15:13.843Z,71.73
2019-02-24T18:17:42.339Z,78.30
2019-02-24T18:20:13.714Z,70.77
2019-02-24T18:22:42.184Z,69.73
2019-02-24T18:25:12.584Z,73.73
2019-02-24T18:27:41.447Z,75.30
2019-02-24T18:30:25.065Z,69.83
2019-02-24T18:32:53.894Z,66.33
2019-02-24T18:35:22.475Z,69.83
2019-02-24T18:37:51.029Z,64.70
2019-02-24T18:40:19.555Z,66.17
2019-02-24T18:42:48.030Z,61.27
2019-02-24T18:45:16.843Z,68.40
2019-02-24T18:47:45.368Z,69.30
2019-02-24T18:50:18.232Z,62.70
2019-02-24T18:52:46.750Z,63.70
2019-02-24T18:55:15.205Z,68.30
2019-02-24T18:57:43.688Z,68.23
2019-02-24T19:00:19.978Z,64.30
2019-02-24T19:02:48.585Z,73.57
2019-02-24T19:05:17.651Z,77.23
2019-02-24T19:07:46.196Z,76.77
2019-02-24T19:10:22.225Z,69.60
2019-02-24T19:12:50.807Z,65.43
2019-02-24T19:15:21.298Z,62.40
2019-02-24T19:17:49.782Z,65.97
2019-02-24T19:20:20.218Z,60.90
2019-02-24T19:22:48.816Z,61.37
2019-02-24T19:25:17.510Z,70.07
2019-02-24T19:27:46.336Z,61.53
2019-02-24T19:30:19.667Z,61.57
2019-02-24T19:32:48.367Z,66.07
2019-02-24T19:35:18.233Z,60.47
2019-02-24T19:37:46.740Z,52.73
2019-02-24T19:40:20.282Z,53.33
2019-02-24T19:42:48.943Z,49.77
2019-02-24T19:45:24.730Z,50.87
2019-02-24T19:47:53.271Z,47.13
2019-02-24T19:50:22.043Z,44.70
2019-02-24T19:52:50.594Z,49.43
2019-02-24T19:55:19.359Z,51.27
2019-02-24T19:57:47.827Z,51.37
2019-02-24T20:00:26.309Z,58.73
2019-02-24T20:02:54.867Z,49.00
2019-02-24T20:05:23.702Z,51.73
2019-02-24T20:07:52.174Z,49.43
2019-02-24T20:10:26.194Z,47.90
2019-02-24T20:12:54.931Z,44.27
2019-02-24T20:15:23.558Z,51.13
2019-02-24T20:17:52.025Z,44.03
2019-02-24T20:20:20.555Z,48.37
2019-02-24T20:22:49.022Z,50.27
2019-02-24T20:25:20.252Z,46.93
2019-02-24T20:27:48.863Z,46.07
2019-02-24T20:30:20.124Z,51.37
2019-02-24T20:32:48.615Z,82.67
2019-02-24T20:35:17.154Z,79.83
2019-02-24T20:37:45.737Z,84.53
2019-02-24T20:40:14.285Z,86.73
2019-02-24T20:42:42.747Z,80.67
2019-02-24T20:45:24.193Z,81.40
2019-02-24T20:47:52.984Z,60.43
2019-02-24T20:50:26.415Z,50.17
2019-02-24T20:52:54.944Z,53.00
2019-02-24T20:55:23.420Z,53.23
2019-02-24T20:57:51.883Z,54.20
2019-02-24T21:00:32.243Z,51.17
2019-02-24T21:03:01.526Z,46.53
2019-02-24T21:05:31.173Z,45.87
2019-02-24T21:07:59.655Z,42.93
2019-02-24T21:10:28.119Z,46.87
2019-02-24T21:12:56.579Z,48.17
2019-02-24T21:15:25.061Z,48.53
2019-02-24T21:17:53.673Z,49.63
2019-02-24T21:20:25.074Z,50.33
2019-02-24T21:22:53.530Z,50.03
2019-02-24T21:25:22.053Z,49.93
2019-02-24T21:27:50.543Z,51.83
2019-02-24T21:30:19.619Z,44.90
2019-02-24T21:32:48.306Z,53.37
2019-02-24T21:35:17.479Z,50.17
2019-02-24T21:37:46.562Z,50.37
2019-02-24T21:40:17.126Z,43.27
2019-02-24T21:42:45.712Z,42.30
2019-02-24T21:45:20.202Z,45.53
2019-02-24T21:47:48.676Z,43.53
2019-02-24T21:50:18.302Z,44.50
2019-02-24T21:52:46.757Z,44.60
2019-02-24T21:55:15.615Z,45.40
2019-02-24T21:57:44.138Z,47.50
2019-02-24T22:00:15.806Z,44.93
2019-02-24T22:02:44.454Z,44.27
2019-02-24T22:05:13.646Z,50.93
2019-02-24T22:07:42.379Z,49.87
2019-02-24T22:10:13.138Z,55.10
2019-02-24T22:12:41.588Z,55.23
2019-02-24T22:15:16.411Z,51.37
2019-02-24T22:17:44.943Z,53.63
2019-02-24T22:20:15.310Z,58.60
2019-02-24T22:22:44.322Z,54.27
2019-02-24T22:25:14.203Z,51.07
2019-02-24T22:27:42.963Z,46.67
2019-02-24T22:30:16.829Z,47.00
2019-02-24T22:32:45.428Z,57.43
2019-02-24T22:35:14.608Z,52.23
2019-02-24T22:37:43.148Z,54.47
2019-02-24T22:40:13.120Z,55.93
2019-02-24T22:42:41.799Z,53.87
2019-02-24T22:45:17.014Z,51.70
2019-02-24T22:47:46.060Z,45.17
2019-02-24T22:50:15.562Z,44.53
2019-02-24T22:52:44.554Z,43.63
2019-02-24T22:55:14.776Z,43.80
2019-02-24T22:57:43.304Z,38.07
2019-02-24T23:00:53.936Z,46.93
2019-02-24T23:03:27.767Z,43.40
2019-02-24T23:05:56.641Z,40.53
2019-02-24T23:08:25.171Z,40.43
2019-02-24T23:10:53.641Z,39.57
2019-02-24T23:13:22.139Z,44.07
2019-02-24T23:15:50.721Z,38.47
2019-02-24T23:18:19.256Z,43.00
2019-02-24T23:20:47.789Z,42.00
2019-02-24T23:23:16.249Z,39.50
2019-02-24T23:25:44.696Z,39.33
2019-02-24T23:28:13.144Z,41.93
2019-02-24T23:30:41.625Z,43.13
2019-02-24T23:33:10.277Z,41.23
2019-02-24T23:35:38.730Z,44.50
2019-02-24T23:38:07.189Z,42.67
2019-02-24T23:40:35.646Z,44.97
2019-02-24T23:43:04.671Z,41.40
2019-02-24T23:45:33.158Z,39.83
2019-02-24T23:48:01.620Z,51.00
2019-02-24T23:50:30.069Z,46.67
2019-02-24T23:52:58.568Z,42.03
2019-02-24T23:55:27.027Z,40.33
2019-02-24T23:57:55.485Z,44.27
